sensor_id;sensor_type;location;lat;lon;timestamp;P1;durP1;ratioP1;P2;durP2;ratioP2
22282;SDS011;11310;51.528;21.204;2023-10-31T00:00:36;11.10;;;3.83;;
22282;SDS011;11310;51.528;21.204;2023-10-31T00:03:05;13.80;;;4.82;;
22282;SDS011;11310;51.528;21.204;2023-10-31T00:05:33;15.98;;;5.20;;
22282;SDS011;11310;51.528;21.204;2023-10-31T00:08:02;12.02;;;4.00;;
22282;SDS011;11310;51.528;21.204;2023-10-31T00:10:32;14.25;;;3.88;;
22282;SDS011;11310;51.528;21.204;2023-10-31T00:13:02;8.32;;;3.75;;
22282;SDS011;11310;51.528;21.204;2023-10-31T00:15:31;10.73;;;4.35;;
22282;SDS011;11310;51.528;21.204;2023-10-31T00:18:03;7.57;;;3.83;;
22282;SDS011;11310;51.528;21.204;2023-10-31T00:20:32;14.05;;;4.80;;
22282;SDS011;11310;51.528;21.204;2023-10-31T00:23:01;11.10;;;5.28;;
22282;SDS011;11310;51.528;21.204;2023-10-31T00:25:30;11.48;;;4.70;;
22282;SDS011;11310;51.528;21.204;2023-10-31T00:27:59;10.98;;;4.78;;
22282;SDS011;11310;51.528;21.204;2023-10-31T00:30:27;9.27;;;4.38;;
22282;SDS011;11310;51.528;21.204;2023-10-31T00:32:57;11.20;;;4.80;;
22282;SDS011;11310;51.528;21.204;2023-10-31T00:35:27;13.63;;;5.55;;
22282;SDS011;11310;51.528;21.204;2023-10-31T00:37:57;10.45;;;5.32;;
22282;SDS011;11310;51.528;21.204;2023-10-31T00:40:25;11.10;;;4.82;;
22282;SDS011;11310;51.528;21.204;2023-10-31T00:42:54;11.15;;;4.35;;
22282;SDS011;11310;51.528;21.204;2023-10-31T00:45:26;8.90;;;4.20;;
22282;SDS011;11310;51.528;21.204;2023-10-31T00:47:56;15.23;;;4.97;;
22282;SDS011;11310;51.528;21.204;2023-10-31T00:50:27;8.48;;;4.28;;
22282;SDS011;11310;51.528;21.204;2023-10-31T00:52:56;11.02;;;4.68;;
22282;SDS011;11310;51.528;21.204;2023-10-31T00:55:26;10.43;;;4.07;;
22282;SDS011;11310;51.528;21.204;2023-10-31T00:57:54;9.18;;;4.25;;
22282;SDS011;11310;51.528;21.204;2023-10-31T01:00:23;9.00;;;4.03;;
22282;SDS011;11310;51.528;21.204;2023-10-31T01:02:51;9.85;;;3.92;;
22282;SDS011;11310;51.528;21.204;2023-10-31T01:05:20;10.00;;;4.55;;
22282;SDS011;11310;51.528;21.204;2023-10-31T01:07:50;9.93;;;4.00;;
22282;SDS011;11310;51.528;21.204;2023-10-31T01:10:19;12.82;;;3.95;;
22282;SDS011;11310;51.528;21.204;2023-10-31T01:12:51;8.90;;;4.45;;
22282;SDS011;11310;51.528;21.204;2023-10-31T01:15:20;10.07;;;4.35;;
22282;SDS011;11310;51.528;21.204;2023-10-31T01:17:49;8.82;;;4.05;;
22282;SDS011;11310;51.528;21.204;2023-10-31T01:20:18;12.25;;;4.22;;
22282;SDS011;11310;51.528;21.204;2023-10-31T01:22:50;11.32;;;3.97;;
22282;SDS011;11310;51.528;21.204;2023-10-31T01:25:19;7.85;;;3.67;;
22282;SDS011;11310;51.528;21.204;2023-10-31T01:27:49;11.10;;;3.88;;
22282;SDS011;11310;51.528;21.204;2023-10-31T01:30:20;12.95;;;4.75;;
22282;SDS011;11310;51.528;21.204;2023-10-31T01:32:48;10.00;;;3.70;;
22282;SDS011;11310;51.528;21.204;2023-10-31T01:35:17;8.68;;;3.83;;
22282;SDS011;11310;51.528;21.204;2023-10-31T01:37:45;12.57;;;3.88;;
22282;SDS011;11310;51.528;21.204;2023-10-31T01:40:16;10.80;;;3.65;;
22282;SDS011;11310;51.528;21.204;2023-10-31T01:42:44;8.50;;;3.75;;
22282;SDS011;11310;51.528;21.204;2023-10-31T01:45:13;8.57;;;3.85;;
22282;SDS011;11310;51.528;21.204;2023-10-31T01:47:42;7.13;;;3.15;;
22282;SDS011;11310;51.528;21.204;2023-10-31T01:50:13;7.82;;;3.53;;
22282;SDS011;11310;51.528;21.204;2023-10-31T01:52:43;9.35;;;3.65;;
22282;SDS011;11310;51.528;21.204;2023-10-31T01:55:12;10.23;;;3.75;;
22282;SDS011;11310;51.528;21.204;2023-10-31T01:57:42;10.02;;;3.67;;
22282;SDS011;11310;51.528;21.204;2023-10-31T02:00:15;8.70;;;3.42;;
22282;SDS011;11310;51.528;21.204;2023-10-31T02:02:47;9.65;;;3.50;;
22282;SDS011;11310;51.528;21.204;2023-10-31T02:05:17;9.32;;;3.33;;
22282;SDS011;11310;51.528;21.204;2023-10-31T02:07:48;7.95;;;3.38;;
22282;SDS011;11310;51.528;21.204;2023-10-31T02:10:19;6.38;;;2.40;;
22282;SDS011;11310;51.528;21.204;2023-10-31T02:12:49;7.30;;;3.03;;
22282;SDS011;11310;51.528;21.204;2023-10-31T02:15:17;9.30;;;3.33;;
22282;SDS011;11310;51.528;21.204;2023-10-31T02:17:49;7.22;;;3.05;;
22282;SDS011;11310;51.528;21.204;2023-10-31T02:20:18;12.43;;;4.95;;
22282;SDS011;11310;51.528;21.204;2023-10-31T02:22:48;9.68;;;3.75;;
22282;SDS011;11310;51.528;21.204;2023-10-31T02:25:17;7.28;;;3.50;;
22282;SDS011;11310;51.528;21.204;2023-10-31T02:27:46;11.27;;;3.47;;
22282;SDS011;11310;51.528;21.204;2023-10-31T02:30:15;11.85;;;3.70;;
22282;SDS011;11310;51.528;21.204;2023-10-31T02:32:44;10.90;;;3.45;;
22282;SDS011;11310;51.528;21.204;2023-10-31T02:35:13;8.20;;;3.35;;
22282;SDS011;11310;51.528;21.204;2023-10-31T02:37:44;9.68;;;3.08;;
22282;SDS011;11310;51.528;21.204;2023-10-31T02:40:14;8.05;;;3.28;;
22282;SDS011;11310;51.528;21.204;2023-10-31T02:42:44;12.02;;;3.20;;
22282;SDS011;11310;51.528;21.204;2023-10-31T02:45:13;7.30;;;3.13;;
22282;SDS011;11310;51.528;21.204;2023-10-31T02:47:41;10.88;;;3.30;;
22282;SDS011;11310;51.528;21.204;2023-10-31T02:50:10;6.28;;;2.83;;
22282;SDS011;11310;51.528;21.204;2023-10-31T02:52:39;14.45;;;2.83;;
22282;SDS011;11310;51.528;21.204;2023-10-31T02:55:08;8.35;;;2.72;;
22282;SDS011;11310;51.528;21.204;2023-10-31T02:57:38;13.15;;;3.38;;
22282;SDS011;11310;51.528;21.204;2023-10-31T03:00:07;6.03;;;2.60;;
22282;SDS011;11310;51.528;21.204;2023-10-31T03:02:36;8.65;;;2.83;;
22282;SDS011;11310;51.528;21.204;2023-10-31T03:05:05;8.02;;;2.85;;
22282;SDS011;11310;51.528;21.204;2023-10-31T03:07:34;8.57;;;2.60;;
22282;SDS011;11310;51.528;21.204;2023-10-31T03:10:03;8.68;;;2.72;;
22282;SDS011;11310;51.528;21.204;2023-10-31T03:12:33;7.55;;;2.97;;
22282;SDS011;11310;51.528;21.204;2023-10-31T03:15:03;7.55;;;2.50;;
22282;SDS011;11310;51.528;21.204;2023-10-31T03:17:37;8.10;;;2.38;;
22282;SDS011;11310;51.528;21.204;2023-10-31T03:20:06;7.90;;;2.55;;
22282;SDS011;11310;51.528;21.204;2023-10-31T03:22:36;8.55;;;2.45;;
22282;SDS011;11310;51.528;21.204;2023-10-31T03:25:06;7.18;;;2.60;;
22282;SDS011;11310;51.528;21.204;2023-10-31T03:27:35;7.22;;;2.60;;
22282;SDS011;11310;51.528;21.204;2023-10-31T03:30:06;6.60;;;2.60;;
22282;SDS011;11310;51.528;21.204;2023-10-31T03:32:36;6.80;;;2.78;;
22282;SDS011;11310;51.528;21.204;2023-10-31T03:35:05;6.95;;;2.40;;
22282;SDS011;11310;51.528;21.204;2023-10-31T03:37:34;7.63;;;3.30;;
22282;SDS011;11310;51.528;21.204;2023-10-31T03:40:03;6.90;;;2.83;;
22282;SDS011;11310;51.528;21.204;2023-10-31T03:42:34;8.35;;;2.60;;
22282;SDS011;11310;51.528;21.204;2023-10-31T03:45:04;10.02;;;2.22;;
22282;SDS011;11310;51.528;21.204;2023-10-31T03:47:34;6.87;;;2.60;;
22282;SDS011;11310;51.528;21.204;2023-10-31T03:50:03;8.70;;;2.75;;
22282;SDS011;11310;51.528;21.204;2023-10-31T03:52:32;6.90;;;2.50;;
22282;SDS011;11310;51.528;21.204;2023-10-31T03:55:01;7.60;;;2.47;;
22282;SDS011;11310;51.528;21.204;2023-10-31T03:57:30;6.68;;;2.60;;
22282;SDS011;11310;51.528;21.204;2023-10-31T03:59:59;8.50;;;2.70;;
22282;SDS011;11310;51.528;21.204;2023-10-31T04:02:40;10.73;;;3.20;;
22282;SDS011;11310;51.528;21.204;2023-10-31T04:05:09;10.38;;;3.15;;
22282;SDS011;11310;51.528;21.204;2023-10-31T04:07:38;11.43;;;3.28;;
22282;SDS011;11310;51.528;21.204;2023-10-31T04:10:07;12.00;;;3.25;;
22282;SDS011;11310;51.528;21.204;2023-10-31T04:12:37;7.28;;;2.63;;
22282;SDS011;11310;51.528;21.204;2023-10-31T04:15:07;9.30;;;2.63;;
22282;SDS011;11310;51.528;21.204;2023-10-31T04:17:36;9.23;;;2.70;;
22282;SDS011;11310;51.528;21.204;2023-10-31T04:20:07;7.47;;;2.63;;
22282;SDS011;11310;51.528;21.204;2023-10-31T04:25:05;8.30;;;2.40;;
22282;SDS011;11310;51.528;21.204;2023-10-31T04:27:34;7.03;;;2.72;;
22282;SDS011;11310;51.528;21.204;2023-10-31T04:30:02;6.88;;;2.55;;
22282;SDS011;11310;51.528;21.204;2023-10-31T04:32:32;9.80;;;2.80;;
22282;SDS011;11310;51.528;21.204;2023-10-31T04:35:01;8.35;;;3.10;;
22282;SDS011;11310;51.528;21.204;2023-10-31T04:37:31;4.90;;;2.45;;
22282;SDS011;11310;51.528;21.204;2023-10-31T04:40:01;8.52;;;2.75;;
22282;SDS011;11310;51.528;21.204;2023-10-31T04:42:30;5.53;;;2.53;;
22282;SDS011;11310;51.528;21.204;2023-10-31T04:45:00;9.10;;;2.60;;
22282;SDS011;11310;51.528;21.204;2023-10-31T04:47:30;9.35;;;2.65;;
22282;SDS011;11310;51.528;21.204;2023-10-31T04:49:59;10.02;;;2.83;;
22282;SDS011;11310;51.528;21.204;2023-10-31T04:52:28;6.68;;;2.53;;
22282;SDS011;11310;51.528;21.204;2023-10-31T04:54:57;8.95;;;2.47;;
22282;SDS011;11310;51.528;21.204;2023-10-31T04:57:26;8.60;;;2.45;;
22282;SDS011;11310;51.528;21.204;2023-10-31T04:59:54;6.80;;;2.95;;
22282;SDS011;11310;51.528;21.204;2023-10-31T05:02:24;6.03;;;2.45;;
22282;SDS011;11310;51.528;21.204;2023-10-31T05:04:53;7.00;;;2.65;;
22282;SDS011;11310;51.528;21.204;2023-10-31T05:07:22;11.88;;;3.17;;
22282;SDS011;11310;51.528;21.204;2023-10-31T05:09:50;11.25;;;3.10;;
22282;SDS011;11310;51.528;21.204;2023-10-31T05:12:21;8.98;;;2.70;;
22282;SDS011;11310;51.528;21.204;2023-10-31T05:14:50;8.15;;;2.50;;
22282;SDS011;11310;51.528;21.204;2023-10-31T05:17:18;8.70;;;2.80;;
22282;SDS011;11310;51.528;21.204;2023-10-31T05:19:47;9.32;;;3.05;;
22282;SDS011;11310;51.528;21.204;2023-10-31T05:22:15;12.35;;;2.65;;
22282;SDS011;11310;51.528;21.204;2023-10-31T05:24:44;5.18;;;2.45;;
22282;SDS011;11310;51.528;21.204;2023-10-31T05:27:13;10.48;;;2.75;;
22282;SDS011;11310;51.528;21.204;2023-10-31T05:29:44;8.02;;;3.08;;
22282;SDS011;11310;51.528;21.204;2023-10-31T05:32:13;9.35;;;2.90;;
22282;SDS011;11310;51.528;21.204;2023-10-31T05:34:42;8.27;;;2.80;;
22282;SDS011;11310;51.528;21.204;2023-10-31T05:37:11;9.77;;;2.92;;
22282;SDS011;11310;51.528;21.204;2023-10-31T05:39:40;9.27;;;2.53;;
22282;SDS011;11310;51.528;21.204;2023-10-31T05:42:09;10.90;;;3.00;;
22282;SDS011;11310;51.528;21.204;2023-10-31T05:44:38;6.03;;;2.70;;
22282;SDS011;11310;51.528;21.204;2023-10-31T05:47:08;5.78;;;2.58;;
22282;SDS011;11310;51.528;21.204;2023-10-31T05:49:38;6.45;;;2.35;;
22282;SDS011;11310;51.528;21.204;2023-10-31T05:52:07;6.25;;;2.55;;
22282;SDS011;11310;51.528;21.204;2023-10-31T05:54:35;9.40;;;2.42;;
22282;SDS011;11310;51.528;21.204;2023-10-31T05:57:04;7.75;;;2.45;;
22282;SDS011;11310;51.528;21.204;2023-10-31T05:59:33;5.60;;;2.40;;
22282;SDS011;11310;51.528;21.204;2023-10-31T06:02:01;7.43;;;2.17;;
22282;SDS011;11310;51.528;21.204;2023-10-31T06:04:31;5.15;;;2.65;;
22282;SDS011;11310;51.528;21.204;2023-10-31T06:07:00;5.82;;;2.50;;
22282;SDS011;11310;51.528;21.204;2023-10-31T06:09:29;5.45;;;2.30;;
22282;SDS011;11310;51.528;21.204;2023-10-31T06:12:00;8.63;;;2.42;;
22282;SDS011;11310;51.528;21.204;2023-10-31T06:14:29;8.95;;;2.78;;
22282;SDS011;11310;51.528;21.204;2023-10-31T06:16:58;7.38;;;2.53;;
22282;SDS011;11310;51.528;21.204;2023-10-31T06:19:28;10.85;;;2.80;;
22282;SDS011;11310;51.528;21.204;2023-10-31T06:21:58;9.05;;;2.42;;
22282;SDS011;11310;51.528;21.204;2023-10-31T06:24:27;7.43;;;2.60;;
22282;SDS011;11310;51.528;21.204;2023-10-31T06:26:56;5.00;;;2.30;;
22282;SDS011;11310;51.528;21.204;2023-10-31T06:29:24;4.47;;;2.08;;
22282;SDS011;11310;51.528;21.204;2023-10-31T06:32:13;8.90;;;2.97;;
22282;SDS011;11310;51.528;21.204;2023-10-31T06:34:42;8.25;;;2.30;;
22282;SDS011;11310;51.528;21.204;2023-10-31T06:37:12;7.03;;;2.33;;
22282;SDS011;11310;51.528;21.204;2023-10-31T06:39:41;8.00;;;3.25;;
22282;SDS011;11310;51.528;21.204;2023-10-31T06:42:10;12.55;;;4.03;;
22282;SDS011;11310;51.528;21.204;2023-10-31T06:44:39;7.05;;;2.85;;
22282;SDS011;11310;51.528;21.204;2023-10-31T06:47:07;11.65;;;2.80;;
22282;SDS011;11310;51.528;21.204;2023-10-31T06:49:36;4.50;;;2.47;;
22282;SDS011;11310;51.528;21.204;2023-10-31T06:52:05;13.85;;;2.40;;
22282;SDS011;11310;51.528;21.204;2023-10-31T06:54:35;8.85;;;2.47;;
22282;SDS011;11310;51.528;21.204;2023-10-31T06:57:04;6.00;;;2.47;;
22282;SDS011;11310;51.528;21.204;2023-10-31T06:59:33;7.20;;;2.22;;
22282;SDS011;11310;51.528;21.204;2023-10-31T07:02:02;6.82;;;2.60;;
22282;SDS011;11310;51.528;21.204;2023-10-31T07:04:30;5.63;;;2.38;;
22282;SDS011;11310;51.528;21.204;2023-10-31T07:06:59;7.32;;;2.85;;
22282;SDS011;11310;51.528;21.204;2023-10-31T07:09:28;6.05;;;2.45;;
22282;SDS011;11310;51.528;21.204;2023-10-31T07:11:58;9.13;;;2.72;;
22282;SDS011;11310;51.528;21.204;2023-10-31T07:14:26;8.35;;;2.85;;
22282;SDS011;11310;51.528;21.204;2023-10-31T07:16:55;6.35;;;2.28;;
22282;SDS011;11310;51.528;21.204;2023-10-31T07:19:24;9.93;;;2.50;;
22282;SDS011;11310;51.528;21.204;2023-10-31T07:21:52;4.72;;;2.17;;
22282;SDS011;11310;51.528;21.204;2023-10-31T07:24:21;6.57;;;2.15;;
22282;SDS011;11310;51.528;21.204;2023-10-31T07:26:50;4.28;;;1.95;;
22282;SDS011;11310;51.528;21.204;2023-10-31T07:29:20;7.35;;;2.25;;
22282;SDS011;11310;51.528;21.204;2023-10-31T07:31:48;7.68;;;3.28;;
22282;SDS011;11310;51.528;21.204;2023-10-31T07:34:17;8.52;;;2.65;;
22282;SDS011;11310;51.528;21.204;2023-10-31T07:36:45;6.28;;;2.47;;
22282;SDS011;11310;51.528;21.204;2023-10-31T07:39:14;6.63;;;2.50;;
22282;SDS011;11310;51.528;21.204;2023-10-31T07:41:42;9.00;;;2.63;;
22282;SDS011;11310;51.528;21.204;2023-10-31T07:44:11;7.20;;;2.65;;
22282;SDS011;11310;51.528;21.204;2023-10-31T07:46:42;7.45;;;2.95;;
22282;SDS011;11310;51.528;21.204;2023-10-31T07:49:10;13.80;;;3.17;;
22282;SDS011;11310;51.528;21.204;2023-10-31T07:51:39;6.72;;;2.85;;
22282;SDS011;11310;51.528;21.204;2023-10-31T07:54:09;7.82;;;2.53;;
22282;SDS011;11310;51.528;21.204;2023-10-31T07:56:37;6.95;;;2.88;;
22282;SDS011;11310;51.528;21.204;2023-10-31T07:59:07;7.18;;;3.00;;
22282;SDS011;11310;51.528;21.204;2023-10-31T08:01:35;8.68;;;2.78;;
22282;SDS011;11310;51.528;21.204;2023-10-31T08:04:06;6.85;;;2.58;;
22282;SDS011;11310;51.528;21.204;2023-10-31T08:06:34;8.20;;;2.70;;
22282;SDS011;11310;51.528;21.204;2023-10-31T08:09:02;5.50;;;2.22;;
22282;SDS011;11310;51.528;21.204;2023-10-31T08:14:14;5.43;;;2.35;;
22282;SDS011;11310;51.528;21.204;2023-10-31T08:16:43;9.23;;;2.13;;
22282;SDS011;11310;51.528;21.204;2023-10-31T08:19:16;5.95;;;2.35;;
22282;SDS011;11310;51.528;21.204;2023-10-31T08:21:45;8.60;;;2.60;;
22282;SDS011;11310;51.528;21.204;2023-10-31T08:24:13;8.00;;;2.80;;
22282;SDS011;11310;51.528;21.204;2023-10-31T08:26:42;7.57;;;3.28;;
22282;SDS011;11310;51.528;21.204;2023-10-31T08:29:11;7.53;;;2.90;;
22282;SDS011;11310;51.528;21.204;2023-10-31T08:31:40;5.65;;;2.70;;
22282;SDS011;11310;51.528;21.204;2023-10-31T08:34:09;7.57;;;2.45;;
22282;SDS011;11310;51.528;21.204;2023-10-31T08:36:39;6.90;;;2.22;;
22282;SDS011;11310;51.528;21.204;2023-10-31T08:39:09;5.00;;;2.25;;
22282;SDS011;11310;51.528;21.204;2023-10-31T08:41:49;5.97;;;2.22;;
22282;SDS011;11310;51.528;21.204;2023-10-31T08:44:18;7.82;;;2.95;;
22282;SDS011;11310;51.528;21.204;2023-10-31T08:46:46;7.50;;;2.25;;
22282;SDS011;11310;51.528;21.204;2023-10-31T08:49:15;5.55;;;2.67;;
22282;SDS011;11310;51.528;21.204;2023-10-31T08:51:46;5.53;;;2.22;;
22282;SDS011;11310;51.528;21.204;2023-10-31T08:54:14;8.18;;;2.58;;
22282;SDS011;11310;51.528;21.204;2023-10-31T08:56:43;6.20;;;2.38;;
22282;SDS011;11310;51.528;21.204;2023-10-31T08:59:11;7.68;;;3.20;;
22282;SDS011;11310;51.528;21.204;2023-10-31T09:01:40;5.38;;;2.42;;
22282;SDS011;11310;51.528;21.204;2023-10-31T09:04:10;11.23;;;2.88;;
22282;SDS011;11310;51.528;21.204;2023-10-31T09:06:41;5.05;;;2.35;;
22282;SDS011;11310;51.528;21.204;2023-10-31T09:09:11;6.75;;;2.25;;
22282;SDS011;11310;51.528;21.204;2023-10-31T09:11:42;11.18;;;2.40;;
22282;SDS011;11310;51.528;21.204;2023-10-31T09:14:10;8.15;;;2.58;;
22282;SDS011;11310;51.528;21.204;2023-10-31T09:16:39;7.78;;;2.30;;
22282;SDS011;11310;51.528;21.204;2023-10-31T09:19:08;5.95;;;2.17;;
22282;SDS011;11310;51.528;21.204;2023-10-31T09:21:36;6.57;;;2.38;;
22282;SDS011;11310;51.528;21.204;2023-10-31T09:24:05;12.25;;;2.47;;
22282;SDS011;11310;51.528;21.204;2023-10-31T09:26:36;5.30;;;2.33;;
22282;SDS011;11310;51.528;21.204;2023-10-31T09:29:05;6.07;;;3.10;;
22282;SDS011;11310;51.528;21.204;2023-10-31T09:31:39;7.07;;;3.42;;
22282;SDS011;11310;51.528;21.204;2023-10-31T09:34:08;11.75;;;3.88;;
22282;SDS011;11310;51.528;21.204;2023-10-31T09:36:39;8.77;;;4.05;;
22282;SDS011;11310;51.528;21.204;2023-10-31T09:39:10;10.65;;;2.90;;
22282;SDS011;11310;51.528;21.204;2023-10-31T09:41:40;6.93;;;3.00;;
22282;SDS011;11310;51.528;21.204;2023-10-31T09:44:10;7.10;;;2.70;;
22282;SDS011;11310;51.528;21.204;2023-10-31T09:46:38;8.57;;;2.70;;
22282;SDS011;11310;51.528;21.204;2023-10-31T09:49:08;4.85;;;2.33;;
22282;SDS011;11310;51.528;21.204;2023-10-31T09:51:38;8.27;;;2.40;;
22282;SDS011;11310;51.528;21.204;2023-10-31T09:54:06;6.97;;;2.47;;
22282;SDS011;11310;51.528;21.204;2023-10-31T09:56:37;7.93;;;2.60;;
22282;SDS011;11310;51.528;21.204;2023-10-31T09:59:07;8.80;;;2.70;;
22282;SDS011;11310;51.528;21.204;2023-10-31T10:01:36;12.02;;;2.72;;
22282;SDS011;11310;51.528;21.204;2023-10-31T10:04:05;4.20;;;2.00;;
22282;SDS011;11310;51.528;21.204;2023-10-31T10:06:34;8.07;;;2.60;;
22282;SDS011;11310;51.528;21.204;2023-10-31T10:09:03;6.47;;;2.60;;
22282;SDS011;11310;51.528;21.204;2023-10-31T10:11:34;8.60;;;2.17;;
22282;SDS011;11310;51.528;21.204;2023-10-31T10:14:03;8.80;;;2.67;;
22282;SDS011;11310;51.528;21.204;2023-10-31T10:16:39;7.38;;;2.65;;
22282;SDS011;11310;51.528;21.204;2023-10-31T10:19:17;7.28;;;2.40;;
22282;SDS011;11310;51.528;21.204;2023-10-31T10:21:47;5.43;;;2.30;;
22282;SDS011;11310;51.528;21.204;2023-10-31T10:24:16;8.80;;;3.17;;
22282;SDS011;11310;51.528;21.204;2023-10-31T10:26:45;7.78;;;2.22;;
22282;SDS011;11310;51.528;21.204;2023-10-31T10:29:14;4.95;;;2.13;;
22282;SDS011;11310;51.528;21.204;2023-10-31T10:31:45;7.63;;;2.58;;
22282;SDS011;11310;51.528;21.204;2023-10-31T10:34:14;6.47;;;2.03;;
22282;SDS011;11310;51.528;21.204;2023-10-31T10:36:46;7.10;;;2.33;;
22282;SDS011;11310;51.528;21.204;2023-10-31T10:39:18;5.82;;;2.25;;
22282;SDS011;11310;51.528;21.204;2023-10-31T10:41:51;5.53;;;2.20;;
22282;SDS011;11310;51.528;21.204;2023-10-31T10:44:25;6.22;;;2.28;;
22282;SDS011;11310;51.528;21.204;2023-10-31T10:47:03;6.43;;;2.55;;
22282;SDS011;11310;51.528;21.204;2023-10-31T10:49:34;6.22;;;3.00;;
22282;SDS011;11310;51.528;21.204;2023-10-31T10:52:11;8.10;;;2.47;;
22282;SDS011;11310;51.528;21.204;2023-10-31T10:54:49;7.32;;;2.85;;
22282;SDS011;11310;51.528;21.204;2023-10-31T10:57:25;8.55;;;2.92;;
22282;SDS011;11310;51.528;21.204;2023-10-31T11:00:03;10.10;;;2.97;;
22282;SDS011;11310;51.528;21.204;2023-10-31T11:02:38;8.18;;;3.33;;
22282;SDS011;11310;51.528;21.204;2023-10-31T11:05:10;7.65;;;2.80;;
22282;SDS011;11310;51.528;21.204;2023-10-31T11:07:40;10.30;;;3.15;;
22282;SDS011;11310;51.528;21.204;2023-10-31T11:10:10;10.38;;;2.83;;
22282;SDS011;11310;51.528;21.204;2023-10-31T11:12:39;9.05;;;2.38;;
22282;SDS011;11310;51.528;21.204;2023-10-31T11:15:10;7.13;;;2.70;;
22282;SDS011;11310;51.528;21.204;2023-10-31T11:17:43;8.80;;;3.03;;
22282;SDS011;11310;51.528;21.204;2023-10-31T11:20:15;10.60;;;2.55;;
22282;SDS011;11310;51.528;21.204;2023-10-31T11:22:45;6.32;;;2.65;;
22282;SDS011;11310;51.528;21.204;2023-10-31T11:25:17;7.13;;;2.40;;
22282;SDS011;11310;51.528;21.204;2023-10-31T11:28:10;4.80;;;2.28;;
22282;SDS011;11310;51.528;21.204;2023-10-31T11:30:41;6.43;;;2.15;;
22282;SDS011;11310;51.528;21.204;2023-10-31T11:33:15;3.75;;;1.73;;
22282;SDS011;11310;51.528;21.204;2023-10-31T11:35:49;4.85;;;2.15;;
22282;SDS011;11310;51.528;21.204;2023-10-31T11:38:27;7.38;;;2.28;;
22282;SDS011;11310;51.528;21.204;2023-10-31T11:41:00;8.73;;;2.40;;
22282;SDS011;11310;51.528;21.204;2023-10-31T11:46:22;6.77;;;2.53;;
22282;SDS011;11310;51.528;21.204;2023-10-31T11:48:54;5.43;;;2.10;;
22282;SDS011;11310;51.528;21.204;2023-10-31T11:51:24;6.05;;;2.33;;
22282;SDS011;11310;51.528;21.204;2023-10-31T11:53:52;4.63;;;1.77;;
22282;SDS011;11310;51.528;21.204;2023-10-31T11:56:21;5.43;;;1.70;;
22282;SDS011;11310;51.528;21.204;2023-10-31T11:58:57;5.50;;;2.13;;
22282;SDS011;11310;51.528;21.204;2023-10-31T12:01:27;6.32;;;2.42;;
22282;SDS011;11310;51.528;21.204;2023-10-31T12:03:57;7.57;;;2.13;;
22282;SDS011;11310;51.528;21.204;2023-10-31T12:06:25;8.40;;;1.90;;
22282;SDS011;11310;51.528;21.204;2023-10-31T12:08:58;7.18;;;2.15;;
22282;SDS011;11310;51.528;21.204;2023-10-31T12:11:28;9.35;;;2.10;;
22282;SDS011;11310;51.528;21.204;2023-10-31T12:13:57;5.07;;;1.90;;
22282;SDS011;11310;51.528;21.204;2023-10-31T12:16:29;3.80;;;1.70;;
22282;SDS011;11310;51.528;21.204;2023-10-31T12:19:01;4.20;;;2.00;;
22282;SDS011;11310;51.528;21.204;2023-10-31T12:21:35;5.35;;;1.92;;
22282;SDS011;11310;51.528;21.204;2023-10-31T12:24:10;4.85;;;2.10;;
22282;SDS011;11310;51.528;21.204;2023-10-31T12:26:44;6.47;;;1.80;;
22282;SDS011;11310;51.528;21.204;2023-10-31T12:29:14;6.85;;;2.17;;
22282;SDS011;11310;51.528;21.204;2023-10-31T12:31:47;6.28;;;2.22;;
22282;SDS011;11310;51.528;21.204;2023-10-31T12:34:21;3.55;;;1.67;;
22282;SDS011;11310;51.528;21.204;2023-10-31T12:36:52;4.60;;;1.75;;
22282;SDS011;11310;51.528;21.204;2023-10-31T12:39:22;5.47;;;1.50;;
22282;SDS011;11310;51.528;21.204;2023-10-31T12:41:55;2.72;;;1.70;;
22282;SDS011;11310;51.528;21.204;2023-10-31T12:44:26;5.45;;;2.95;;
22282;SDS011;11310;51.528;21.204;2023-10-31T12:46:57;4.72;;;1.88;;
22282;SDS011;11310;51.528;21.204;2023-10-31T12:49:28;4.20;;;1.80;;
22282;SDS011;11310;51.528;21.204;2023-10-31T12:52:00;3.38;;;1.15;;
22282;SDS011;11310;51.528;21.204;2023-10-31T12:54:31;3.05;;;1.02;;
22282;SDS011;11310;51.528;21.204;2023-10-31T12:57:03;4.18;;;1.05;;
22282;SDS011;11310;51.528;21.204;2023-10-31T12:59:33;2.95;;;1.15;;
22282;SDS011;11310;51.528;21.204;2023-10-31T13:02:05;1.48;;;0.70;;
22282;SDS011;11310;51.528;21.204;2023-10-31T13:04:37;2.83;;;1.00;;
22282;SDS011;11310;51.528;21.204;2023-10-31T13:07:07;2.15;;;1.02;;
22282;SDS011;11310;51.528;21.204;2023-10-31T13:09:36;5.18;;;1.45;;
22282;SDS011;11310;51.528;21.204;2023-10-31T13:12:08;2.78;;;1.30;;
22282;SDS011;11310;51.528;21.204;2023-10-31T13:14:38;8.02;;;1.25;;
22282;SDS011;11310;51.528;21.204;2023-10-31T13:17:10;5.07;;;1.35;;
22282;SDS011;11310;51.528;21.204;2023-10-31T13:19:40;3.70;;;1.38;;
22282;SDS011;11310;51.528;21.204;2023-10-31T13:22:09;2.35;;;1.00;;
22282;SDS011;11310;51.528;21.204;2023-10-31T13:24:37;1.50;;;1.02;;
22282;SDS011;11310;51.528;21.204;2023-10-31T13:27:07;3.75;;;1.10;;
22282;SDS011;11310;51.528;21.204;2023-10-31T13:29:38;2.90;;;1.02;;
22282;SDS011;11310;51.528;21.204;2023-10-31T13:32:07;3.13;;;1.38;;
22282;SDS011;11310;51.528;21.204;2023-10-31T13:34:36;3.83;;;1.27;;
22282;SDS011;11310;51.528;21.204;2023-10-31T13:37:07;3.25;;;1.40;;
22282;SDS011;11310;51.528;21.204;2023-10-31T13:39:36;4.93;;;1.60;;
22282;SDS011;11310;51.528;21.204;2023-10-31T13:42:05;3.40;;;1.38;;
22282;SDS011;11310;51.528;21.204;2023-10-31T13:44:35;3.83;;;1.60;;
22282;SDS011;11310;51.528;21.204;2023-10-31T13:47:05;4.28;;;1.40;;
22282;SDS011;11310;51.528;21.204;2023-10-31T13:49:34;6.75;;;1.80;;
22282;SDS011;11310;51.528;21.204;2023-10-31T13:52:03;2.40;;;1.30;;
22282;SDS011;11310;51.528;21.204;2023-10-31T13:54:33;3.28;;;1.30;;
22282;SDS011;11310;51.528;21.204;2023-10-31T13:57:02;5.25;;;1.52;;
22282;SDS011;11310;51.528;21.204;2023-10-31T13:59:30;4.93;;;1.55;;
22282;SDS011;11310;51.528;21.204;2023-10-31T14:01:59;2.92;;;1.33;;
22282;SDS011;11310;51.528;21.204;2023-10-31T14:04:28;4.45;;;1.40;;
22282;SDS011;11310;51.528;21.204;2023-10-31T14:06:57;4.75;;;1.50;;
22282;SDS011;11310;51.528;21.204;2023-10-31T14:09:27;3.45;;;1.83;;
22282;SDS011;11310;51.528;21.204;2023-10-31T14:11:59;3.40;;;1.42;;
22282;SDS011;11310;51.528;21.204;2023-10-31T14:14:27;3.55;;;1.73;;
22282;SDS011;11310;51.528;21.204;2023-10-31T14:16:56;6.82;;;1.63;;
22282;SDS011;11310;51.528;21.204;2023-10-31T14:19:26;3.05;;;1.45;;
22282;SDS011;11310;51.528;21.204;2023-10-31T14:21:54;3.70;;;1.27;;
22282;SDS011;11310;51.528;21.204;2023-10-31T14:24:24;3.80;;;1.08;;
22282;SDS011;11310;51.528;21.204;2023-10-31T14:26:53;4.13;;;1.48;;
22282;SDS011;11310;51.528;21.204;2023-10-31T14:29:23;3.90;;;1.63;;
22282;SDS011;11310;51.528;21.204;2023-10-31T14:31:52;2.72;;;1.33;;
22282;SDS011;11310;51.528;21.204;2023-10-31T14:34:21;3.05;;;1.50;;
22282;SDS011;11310;51.528;21.204;2023-10-31T14:36:50;2.92;;;1.40;;
22282;SDS011;11310;51.528;21.204;2023-10-31T14:39:19;3.22;;;1.40;;
22282;SDS011;11310;51.528;21.204;2023-10-31T14:41:48;3.08;;;1.35;;
22282;SDS011;11310;51.528;21.204;2023-10-31T14:44:17;5.40;;;1.45;;
22282;SDS011;11310;51.528;21.204;2023-10-31T14:46:49;5.05;;;1.45;;
22282;SDS011;11310;51.528;21.204;2023-10-31T14:49:18;5.75;;;1.77;;
22282;SDS011;11310;51.528;21.204;2023-10-31T14:51:47;6.57;;;2.00;;
22282;SDS011;11310;51.528;21.204;2023-10-31T14:54:16;6.75;;;1.95;;
22282;SDS011;11310;51.528;21.204;2023-10-31T14:56:46;7.35;;;2.30;;